sensor_id;sensor_type;location;lat;lon;timestamp;P1;durP1;ratioP1;P2;durP2;ratioP2
76599;SDS011;65489;52.048;6.090;2024-03-08T00:00:26;3.65;;;2.80;;
76599;SDS011;65489;52.048;6.090;2024-03-08T00:02:52;3.45;;;2.80;;
76599;SDS011;65489;52.048;6.090;2024-03-08T00:05:17;3.30;;;2.60;;
76599;SDS011;65489;52.048;6.090;2024-03-08T00:07:43;3.60;;;2.47;;
76599;SDS011;65489;52.048;6.090;2024-03-08T00:10:09;4.25;;;2.60;;
76599;SDS011;65489;52.048;6.090;2024-03-08T00:12:39;3.67;;;2.70;;
76599;SDS011;65489;52.048;6.090;2024-03-08T00:15:12;3.33;;;2.70;;
76599;SDS011;65489;52.048;6.090;2024-03-08T00:17:42;3.60;;;2.60;;
76599;SDS011;65489;52.048;6.090;2024-03-08T00:20:08;4.15;;;2.58;;
76599;SDS011;65489;52.048;6.090;2024-03-08T00:22:34;3.50;;;2.78;;
76599;SDS011;65489;52.048;6.090;2024-03-08T00:25:01;3.17;;;2.47;;
76599;SDS011;65489;52.048;6.090;2024-03-08T00:27:27;3.05;;;2.40;;
76599;SDS011;65489;52.048;6.090;2024-03-08T00:29:53;3.60;;;2.80;;
76599;SDS011;65489;52.048;6.090;2024-03-08T00:32:19;3.20;;;2.60;;
76599;SDS011;65489;52.048;6.090;2024-03-08T00:34:44;3.53;;;2.40;;
76599;SDS011;65489;52.048;6.090;2024-03-08T00:37:10;3.08;;;2.40;;
76599;SDS011;65489;52.048;6.090;2024-03-08T00:39:35;3.58;;;2.42;;
76599;SDS011;65489;52.048;6.090;2024-03-08T00:42:01;3.80;;;2.65;;
76599;SDS011;65489;52.048;6.090;2024-03-08T00:44:26;2.92;;;2.25;;
76599;SDS011;65489;52.048;6.090;2024-03-08T00:46:52;3.15;;;2.60;;
76599;SDS011;65489;52.048;6.090;2024-03-08T00:49:17;5.00;;;2.92;;
76599;SDS011;65489;52.048;6.090;2024-03-08T00:51:43;3.05;;;2.25;;
76599;SDS011;65489;52.048;6.090;2024-03-08T00:54:08;3.30;;;2.50;;
76599;SDS011;65489;52.048;6.090;2024-03-08T00:56:34;3.47;;;2.70;;
76599;SDS011;65489;52.048;6.090;2024-03-08T00:59:00;3.53;;;2.55;;
76599;SDS011;65489;52.048;6.090;2024-03-08T01:01:27;4.10;;;2.80;;
76599;SDS011;65489;52.048;6.090;2024-03-08T01:03:56;3.15;;;2.72;;
76599;SDS011;65489;52.048;6.090;2024-03-08T01:06:22;4.65;;;2.45;;
76599;SDS011;65489;52.048;6.090;2024-03-08T01:08:47;3.05;;;2.50;;
76599;SDS011;65489;52.048;6.090;2024-03-08T01:11:13;3.30;;;2.58;;
76599;SDS011;65489;52.048;6.090;2024-03-08T01:13:39;3.75;;;2.72;;
76599;SDS011;65489;52.048;6.090;2024-03-08T01:16:04;3.55;;;2.50;;
76599;SDS011;65489;52.048;6.090;2024-03-08T01:18:30;4.15;;;2.90;;
76599;SDS011;65489;52.048;6.090;2024-03-08T01:20:56;3.05;;;2.55;;
76599;SDS011;65489;52.048;6.090;2024-03-08T01:23:22;4.55;;;2.50;;
76599;SDS011;65489;52.048;6.090;2024-03-08T01:25:47;3.33;;;2.60;;
76599;SDS011;65489;52.048;6.090;2024-03-08T01:28:17;3.95;;;2.72;;
76599;SDS011;65489;52.048;6.090;2024-03-08T01:30:42;3.13;;;2.80;;
76599;SDS011;65489;52.048;6.090;2024-03-08T01:33:08;2.85;;;2.40;;
76599;SDS011;65489;52.048;6.090;2024-03-08T01:35:33;3.03;;;2.60;;
76599;SDS011;65489;52.048;6.090;2024-03-08T01:37:59;3.45;;;2.70;;
76599;SDS011;65489;52.048;6.090;2024-03-08T01:40:25;3.20;;;2.55;;
76599;SDS011;65489;52.048;6.090;2024-03-08T01:42:50;2.88;;;2.25;;
76599;SDS011;65489;52.048;6.090;2024-03-08T01:45:15;3.95;;;2.67;;
76599;SDS011;65489;52.048;6.090;2024-03-08T01:47:41;3.58;;;2.38;;
76599;SDS011;65489;52.048;6.090;2024-03-08T01:50:07;3.53;;;2.50;;
76599;SDS011;65489;52.048;6.090;2024-03-08T01:52:33;3.00;;;2.60;;
76599;SDS011;65489;52.048;6.090;2024-03-08T01:54:59;3.08;;;2.47;;
76599;SDS011;65489;52.048;6.090;2024-03-08T01:57:26;3.47;;;2.78;;
76599;SDS011;65489;52.048;6.090;2024-03-08T01:59:53;3.55;;;2.50;;
76599;SDS011;65489;52.048;6.090;2024-03-08T02:02:21;3.58;;;2.83;;
76599;SDS011;65489;52.048;6.090;2024-03-08T02:04:47;3.42;;;2.70;;
76599;SDS011;65489;52.048;6.090;2024-03-08T02:07:12;4.53;;;2.90;;
76599;SDS011;65489;52.048;6.090;2024-03-08T02:09:38;3.10;;;2.55;;
76599;SDS011;65489;52.048;6.090;2024-03-08T02:12:04;4.40;;;2.83;;
76599;SDS011;65489;52.048;6.090;2024-03-08T02:14:34;4.03;;;2.95;;
76599;SDS011;65489;52.048;6.090;2024-03-08T02:17:01;3.78;;;2.67;;
76599;SDS011;65489;52.048;6.090;2024-03-08T02:19:27;3.60;;;2.65;;
76599;SDS011;65489;52.048;6.090;2024-03-08T02:21:52;3.50;;;2.58;;
76599;SDS011;65489;52.048;6.090;2024-03-08T02:24:18;3.95;;;2.72;;
76599;SDS011;65489;52.048;6.090;2024-03-08T02:26:44;3.88;;;2.60;;
76599;SDS011;65489;52.048;6.090;2024-03-08T02:29:09;2.88;;;2.28;;
76599;SDS011;65489;52.048;6.090;2024-03-08T02:31:35;2.95;;;2.60;;
76599;SDS011;65489;52.048;6.090;2024-03-08T02:34:00;3.42;;;2.47;;
76599;SDS011;65489;52.048;6.090;2024-03-08T02:36:26;2.92;;;2.42;;
76599;SDS011;65489;52.048;6.090;2024-03-08T02:38:51;3.33;;;2.28;;
76599;SDS011;65489;52.048;6.090;2024-03-08T02:41:17;3.08;;;2.72;;
76599;SDS011;65489;52.048;6.090;2024-03-08T02:43:43;4.43;;;2.83;;
76599;SDS011;65489;52.048;6.090;2024-03-08T02:46:10;3.13;;;2.50;;
76599;SDS011;65489;52.048;6.090;2024-03-08T02:48:35;4.22;;;2.60;;
76599;SDS011;65489;52.048;6.090;2024-03-08T02:51:01;2.90;;;2.40;;
76599;SDS011;65489;52.048;6.090;2024-03-08T02:53:27;2.72;;;2.40;;
76599;SDS011;65489;52.048;6.090;2024-03-08T02:55:52;3.15;;;2.45;;
76599;SDS011;65489;52.048;6.090;2024-03-08T02:58:18;3.55;;;2.83;;
76599;SDS011;65489;52.048;6.090;2024-03-08T03:00:43;3.67;;;2.63;;
76599;SDS011;65489;52.048;6.090;2024-03-08T03:03:09;3.15;;;2.60;;
76599;SDS011;65489;52.048;6.090;2024-03-08T03:05:34;3.45;;;2.63;;
76599;SDS011;65489;52.048;6.090;2024-03-08T03:08:00;2.83;;;2.35;;
76599;SDS011;65489;52.048;6.090;2024-03-08T03:10:25;3.22;;;2.58;;
76599;SDS011;65489;52.048;6.090;2024-03-08T03:12:51;4.15;;;2.78;;
76599;SDS011;65489;52.048;6.090;2024-03-08T03:15:17;4.00;;;2.55;;
76599;SDS011;65489;52.048;6.090;2024-03-08T03:17:49;3.47;;;2.58;;
76599;SDS011;65489;52.048;6.090;2024-03-08T03:20:18;2.50;;;2.25;;
76599;SDS011;65489;52.048;6.090;2024-03-08T03:22:57;3.50;;;2.53;;
76599;SDS011;65489;52.048;6.090;2024-03-08T03:25:23;2.90;;;2.50;;
76599;SDS011;65489;52.048;6.090;2024-03-08T03:27:50;3.58;;;2.65;;
76599;SDS011;65489;52.048;6.090;2024-03-08T03:30:17;3.13;;;2.55;;
76599;SDS011;65489;52.048;6.090;2024-03-08T03:32:49;2.83;;;2.35;;
76599;SDS011;65489;52.048;6.090;2024-03-08T03:35:16;4.53;;;2.67;;
76599;SDS011;65489;52.048;6.090;2024-03-08T03:37:42;3.35;;;2.47;;
76599;SDS011;65489;52.048;6.090;2024-03-08T03:40:10;2.80;;;2.50;;
76599;SDS011;65489;52.048;6.090;2024-03-08T03:42:37;3.90;;;2.63;;
76599;SDS011;65489;52.048;6.090;2024-03-08T03:45:04;3.50;;;2.70;;
76599;SDS011;65489;52.048;6.090;2024-03-08T03:47:34;3.50;;;2.75;;
76599;SDS011;65489;52.048;6.090;2024-03-08T03:50:01;3.15;;;2.53;;
76599;SDS011;65489;52.048;6.090;2024-03-08T03:52:28;4.35;;;2.70;;
76599;SDS011;65489;52.048;6.090;2024-03-08T03:54:53;3.22;;;2.50;;
76599;SDS011;65489;52.048;6.090;2024-03-08T03:57:19;2.65;;;2.15;;
76599;SDS011;65489;52.048;6.090;2024-03-08T03:59:45;3.10;;;2.38;;
76599;SDS011;65489;52.048;6.090;2024-03-08T04:02:12;3.30;;;2.60;;
76599;SDS011;65489;52.048;6.090;2024-03-08T04:04:38;3.15;;;2.47;;
76599;SDS011;65489;52.048;6.090;2024-03-08T04:07:03;3.47;;;2.60;;
76599;SDS011;65489;52.048;6.090;2024-03-08T04:09:30;3.65;;;2.38;;
76599;SDS011;65489;52.048;6.090;2024-03-08T04:11:55;2.90;;;2.50;;
76599;SDS011;65489;52.048;6.090;2024-03-08T04:14:21;4.93;;;2.60;;
76599;SDS011;65489;52.048;6.090;2024-03-08T04:16:48;3.13;;;2.70;;
76599;SDS011;65489;52.048;6.090;2024-03-08T04:19:13;3.35;;;2.65;;
76599;SDS011;65489;52.048;6.090;2024-03-08T04:21:39;3.53;;;2.90;;
76599;SDS011;65489;52.048;6.090;2024-03-08T04:24:04;3.35;;;2.55;;
76599;SDS011;65489;52.048;6.090;2024-03-08T04:26:30;3.47;;;2.47;;
76599;SDS011;65489;52.048;6.090;2024-03-08T04:28:56;3.30;;;2.60;;
76599;SDS011;65489;52.048;6.090;2024-03-08T04:31:22;3.45;;;2.70;;
76599;SDS011;65489;52.048;6.090;2024-03-08T04:33:47;2.80;;;2.50;;
76599;SDS011;65489;52.048;6.090;2024-03-08T04:36:13;3.00;;;2.70;;
76599;SDS011;65489;52.048;6.090;2024-03-08T04:38:39;3.20;;;2.55;;
76599;SDS011;65489;52.048;6.090;2024-03-08T04:41:06;2.88;;;2.38;;
76599;SDS011;65489;52.048;6.090;2024-03-08T04:43:32;2.95;;;2.15;;
76599;SDS011;65489;52.048;6.090;2024-03-08T04:45:57;3.55;;;2.42;;
76599;SDS011;65489;52.048;6.090;2024-03-08T04:48:23;3.45;;;2.65;;
76599;SDS011;65489;52.048;6.090;2024-03-08T04:50:52;3.42;;;2.78;;
76599;SDS011;65489;52.048;6.090;2024-03-08T04:53:18;3.17;;;2.42;;
76599;SDS011;65489;52.048;6.090;2024-03-08T04:55:44;2.47;;;2.17;;
76599;SDS011;65489;52.048;6.090;2024-03-08T04:58:10;2.80;;;2.40;;
76599;SDS011;65489;52.048;6.090;2024-03-08T05:00:35;3.13;;;2.40;;
76599;SDS011;65489;52.048;6.090;2024-03-08T05:03:00;3.63;;;2.20;;
76599;SDS011;65489;52.048;6.090;2024-03-08T05:05:26;3.83;;;2.50;;
76599;SDS011;65489;52.048;6.090;2024-03-08T05:07:53;2.95;;;2.45;;
76599;SDS011;65489;52.048;6.090;2024-03-08T05:10:19;3.03;;;2.30;;
76599;SDS011;65489;52.048;6.090;2024-03-08T05:12:44;3.35;;;2.50;;
76599;SDS011;65489;52.048;6.090;2024-03-08T05:15:09;4.28;;;2.80;;
76599;SDS011;65489;52.048;6.090;2024-03-08T05:17:35;4.00;;;2.47;;
76599;SDS011;65489;52.048;6.090;2024-03-08T05:20:01;4.10;;;2.28;;
76599;SDS011;65489;52.048;6.090;2024-03-08T05:22:26;3.33;;;2.70;;
76599;SDS011;65489;52.048;6.090;2024-03-08T05:24:51;3.40;;;2.35;;
76599;SDS011;65489;52.048;6.090;2024-03-08T05:27:17;3.72;;;2.50;;
76599;SDS011;65489;52.048;6.090;2024-03-08T05:29:43;3.50;;;2.60;;
76599;SDS011;65489;52.048;6.090;2024-03-08T05:32:08;2.83;;;2.20;;
76599;SDS011;65489;52.048;6.090;2024-03-08T05:34:35;3.38;;;2.63;;
76599;SDS011;65489;52.048;6.090;2024-03-08T05:37:00;3.20;;;2.35;;
76599;SDS011;65489;52.048;6.090;2024-03-08T05:39:26;2.90;;;2.33;;
76599;SDS011;65489;52.048;6.090;2024-03-08T05:41:52;3.22;;;2.35;;
76599;SDS011;65489;52.048;6.090;2024-03-08T05:44:17;3.15;;;2.42;;
76599;SDS011;65489;52.048;6.090;2024-03-08T05:46:43;2.70;;;2.17;;
76599;SDS011;65489;52.048;6.090;2024-03-08T05:49:09;3.22;;;2.30;;
76599;SDS011;65489;52.048;6.090;2024-03-08T05:51:35;3.72;;;2.65;;
76599;SDS011;65489;52.048;6.090;2024-03-08T05:54:01;2.58;;;2.33;;
76599;SDS011;65489;52.048;6.090;2024-03-08T05:56:36;3.95;;;2.45;;
76599;SDS011;65489;52.048;6.090;2024-03-08T05:59:02;2.92;;;2.50;;
76599;SDS011;65489;52.048;6.090;2024-03-08T06:01:28;3.83;;;2.38;;
76599;SDS011;65489;52.048;6.090;2024-03-08T06:03:54;2.55;;;2.35;;
76599;SDS011;65489;52.048;6.090;2024-03-08T06:06:23;2.97;;;2.53;;
76599;SDS011;65489;52.048;6.090;2024-03-08T06:08:49;2.42;;;1.92;;
76599;SDS011;65489;52.048;6.090;2024-03-08T06:11:15;2.70;;;2.45;;
76599;SDS011;65489;52.048;6.090;2024-03-08T06:13:45;3.08;;;2.30;;
76599;SDS011;65489;52.048;6.090;2024-03-08T06:16:11;4.00;;;2.30;;
76599;SDS011;65489;52.048;6.090;2024-03-08T06:18:37;3.30;;;2.50;;
76599;SDS011;65489;52.048;6.090;2024-03-08T06:21:05;2.75;;;2.20;;
76599;SDS011;65489;52.048;6.090;2024-03-08T06:23:37;2.78;;;2.33;;
76599;SDS011;65489;52.048;6.090;2024-03-08T06:26:06;3.17;;;2.40;;
76599;SDS011;65489;52.048;6.090;2024-03-08T06:28:31;3.83;;;2.60;;
76599;SDS011;65489;52.048;6.090;2024-03-08T06:30:58;2.78;;;2.25;;
76599;SDS011;65489;52.048;6.090;2024-03-08T06:33:24;3.15;;;2.55;;
76599;SDS011;65489;52.048;6.090;2024-03-08T06:35:51;2.67;;;2.20;;
76599;SDS011;65489;52.048;6.090;2024-03-08T06:38:22;3.65;;;2.20;;
76599;SDS011;65489;52.048;6.090;2024-03-08T06:40:48;3.80;;;2.40;;
76599;SDS011;65489;52.048;6.090;2024-03-08T06:43:14;2.83;;;2.20;;
76599;SDS011;65489;52.048;6.090;2024-03-08T06:45:44;2.55;;;2.20;;
76599;SDS011;65489;52.048;6.090;2024-03-08T06:48:17;2.55;;;2.10;;
76599;SDS011;65489;52.048;6.090;2024-03-08T06:50:43;2.80;;;2.10;;
76599;SDS011;65489;52.048;6.090;2024-03-08T06:53:10;2.78;;;2.08;;
76599;SDS011;65489;52.048;6.090;2024-03-08T06:55:36;2.53;;;2.10;;
76599;SDS011;65489;52.048;6.090;2024-03-08T06:58:01;2.33;;;1.92;;
76599;SDS011;65489;52.048;6.090;2024-03-08T07:00:27;2.97;;;2.22;;
76599;SDS011;65489;52.048;6.090;2024-03-08T07:02:54;3.72;;;2.28;;
76599;SDS011;65489;52.048;6.090;2024-03-08T07:05:19;3.15;;;2.20;;
76599;SDS011;65489;52.048;6.090;2024-03-08T07:07:45;2.90;;;2.20;;
76599;SDS011;65489;52.048;6.090;2024-03-08T07:10:13;2.53;;;2.08;;
76599;SDS011;65489;52.048;6.090;2024-03-08T07:12:40;3.08;;;1.95;;
76599;SDS011;65489;52.048;6.090;2024-03-08T07:15:06;2.20;;;1.80;;
76599;SDS011;65489;52.048;6.090;2024-03-08T07:17:32;2.63;;;2.10;;
76599;SDS011;65489;52.048;6.090;2024-03-08T07:20:00;2.40;;;2.05;;
76599;SDS011;65489;52.048;6.090;2024-03-08T07:22:32;2.95;;;2.17;;
76599;SDS011;65489;52.048;6.090;2024-03-08T07:24:57;3.35;;;2.20;;
76599;SDS011;65489;52.048;6.090;2024-03-08T07:27:43;3.53;;;2.28;;
76599;SDS011;65489;52.048;6.090;2024-03-08T07:30:09;4.30;;;2.15;;
76599;SDS011;65489;52.048;6.090;2024-03-08T07:32:37;4.25;;;2.53;;
76599;SDS011;65489;52.048;6.090;2024-03-08T07:35:03;6.35;;;3.10;;
76599;SDS011;65489;52.048;6.090;2024-03-08T07:37:30;5.38;;;3.00;;
76599;SDS011;65489;52.048;6.090;2024-03-08T07:39:56;6.93;;;3.03;;
76599;SDS011;65489;52.048;6.090;2024-03-08T07:42:23;9.32;;;3.28;;
76599;SDS011;65489;52.048;6.090;2024-03-08T07:44:48;11.38;;;3.85;;
76599;SDS011;65489;52.048;6.090;2024-03-08T07:47:15;10.23;;;3.63;;
76599;SDS011;65489;52.048;6.090;2024-03-08T07:49:42;8.32;;;3.15;;
76599;SDS011;65489;52.048;6.090;2024-03-08T07:52:08;4.93;;;2.50;;
76599;SDS011;65489;52.048;6.090;2024-03-08T07:54:34;4.15;;;2.45;;
76599;SDS011;65489;52.048;6.090;2024-03-08T07:57:02;6.23;;;2.63;;
76599;SDS011;65489;52.048;6.090;2024-03-08T07:59:28;5.63;;;2.80;;
76599;SDS011;65489;52.048;6.090;2024-03-08T08:01:54;4.07;;;2.58;;
76599;SDS011;65489;52.048;6.090;2024-03-08T08:04:20;5.22;;;2.75;;
76599;SDS011;65489;52.048;6.090;2024-03-08T08:06:49;6.13;;;2.50;;
76599;SDS011;65489;52.048;6.090;2024-03-08T08:09:16;4.28;;;2.28;;
76599;SDS011;65489;52.048;6.090;2024-03-08T08:11:47;6.85;;;2.65;;
76599;SDS011;65489;52.048;6.090;2024-03-08T08:14:12;6.32;;;2.45;;
76599;SDS011;65489;52.048;6.090;2024-03-08T08:16:39;7.72;;;2.47;;
76599;SDS011;65489;52.048;6.090;2024-03-08T08:19:07;4.30;;;2.83;;
76599;SDS011;65489;52.048;6.090;2024-03-08T08:21:34;4.63;;;2.85;;
76599;SDS011;65489;52.048;6.090;2024-03-08T08:24:02;4.43;;;2.53;;
76599;SDS011;65489;52.048;6.090;2024-03-08T08:26:28;5.55;;;2.40;;
76599;SDS011;65489;52.048;6.090;2024-03-08T08:28:54;4.75;;;2.47;;
76599;SDS011;65489;52.048;6.090;2024-03-08T08:31:19;4.25;;;2.63;;
76599;SDS011;65489;52.048;6.090;2024-03-08T08:33:45;5.22;;;2.22;;
76599;SDS011;65489;52.048;6.090;2024-03-08T08:36:10;4.57;;;2.20;;
76599;SDS011;65489;52.048;6.090;2024-03-08T08:38:36;5.00;;;2.38;;
76599;SDS011;65489;52.048;6.090;2024-03-08T08:41:01;4.05;;;2.60;;
76599;SDS011;65489;52.048;6.090;2024-03-08T08:43:27;3.05;;;2.13;;
76599;SDS011;65489;52.048;6.090;2024-03-08T08:45:53;4.63;;;2.35;;
76599;SDS011;65489;52.048;6.090;2024-03-08T08:48:20;7.28;;;2.55;;
76599;SDS011;65489;52.048;6.090;2024-03-08T08:50:45;3.00;;;2.20;;
76599;SDS011;65489;52.048;6.090;2024-03-08T08:53:12;4.50;;;2.40;;
76599;SDS011;65489;52.048;6.090;2024-03-08T08:55:39;3.47;;;2.50;;
76599;SDS011;65489;52.048;6.090;2024-03-08T08:58:05;5.35;;;2.42;;
76599;SDS011;65489;52.048;6.090;2024-03-08T09:00:32;4.43;;;2.83;;
76599;SDS011;65489;52.048;6.090;2024-03-08T09:02:59;3.70;;;2.60;;
76599;SDS011;65489;52.048;6.090;2024-03-08T09:05:25;4.45;;;2.90;;
76599;SDS011;65489;52.048;6.090;2024-03-08T09:07:51;3.42;;;2.78;;
76599;SDS011;65489;52.048;6.090;2024-03-08T09:10:18;5.15;;;3.08;;
76599;SDS011;65489;52.048;6.090;2024-03-08T09:12:44;4.05;;;2.80;;
76599;SDS011;65489;52.048;6.090;2024-03-08T09:15:09;5.78;;;3.38;;
76599;SDS011;65489;52.048;6.090;2024-03-08T09:17:38;3.28;;;2.63;;
76599;SDS011;65489;52.048;6.090;2024-03-08T09:20:07;4.32;;;3.13;;
76599;SDS011;65489;52.048;6.090;2024-03-08T09:22:34;4.18;;;3.20;;
76599;SDS011;65489;52.048;6.090;2024-03-08T09:24:59;4.70;;;3.53;;
76599;SDS011;65489;52.048;6.090;2024-03-08T09:27:25;5.25;;;3.22;;
76599;SDS011;65489;52.048;6.090;2024-03-08T09:29:50;6.28;;;3.72;;
76599;SDS011;65489;52.048;6.090;2024-03-08T09:32:16;4.80;;;3.58;;
76599;SDS011;65489;52.048;6.090;2024-03-08T09:34:42;5.28;;;3.92;;
76599;SDS011;65489;52.048;6.090;2024-03-08T09:37:07;5.47;;;3.70;;
76599;SDS011;65489;52.048;6.090;2024-03-08T09:39:34;4.95;;;4.03;;
76599;SDS011;65489;52.048;6.090;2024-03-08T09:41:59;5.95;;;4.05;;
76599;SDS011;65489;52.048;6.090;2024-03-08T09:44:26;4.95;;;3.67;;
76599;SDS011;65489;52.048;6.090;2024-03-08T09:46:53;6.05;;;4.03;;
76599;SDS011;65489;52.048;6.090;2024-03-08T09:49:20;4.80;;;3.85;;
76599;SDS011;65489;52.048;6.090;2024-03-08T09:51:45;5.55;;;4.10;;
76599;SDS011;65489;52.048;6.090;2024-03-08T09:54:11;5.57;;;4.40;;
76599;SDS011;65489;52.048;6.090;2024-03-08T09:56:37;5.10;;;3.97;;
76599;SDS011;65489;52.048;6.090;2024-03-08T09:59:06;5.40;;;4.00;;
76599;SDS011;65489;52.048;6.090;2024-03-08T10:01:35;6.43;;;4.50;;
76599;SDS011;65489;52.048;6.090;2024-03-08T10:04:01;5.60;;;4.32;;
76599;SDS011;65489;52.048;6.090;2024-03-08T10:06:27;6.07;;;4.20;;
76599;SDS011;65489;52.048;6.090;2024-03-08T10:08:52;5.53;;;4.47;;
76599;SDS011;65489;52.048;6.090;2024-03-08T10:11:18;6.88;;;4.70;;
76599;SDS011;65489;52.048;6.090;2024-03-08T10:13:44;5.57;;;4.63;;
76599;SDS011;65489;52.048;6.090;2024-03-08T10:16:11;5.53;;;4.30;;
76599;SDS011;65489;52.048;6.090;2024-03-08T10:18:37;6.45;;;4.90;;
76599;SDS011;65489;52.048;6.090;2024-03-08T10:21:09;5.65;;;4.10;;
76599;SDS011;65489;52.048;6.090;2024-03-08T10:23:38;6.30;;;4.15;;
76599;SDS011;65489;52.048;6.090;2024-03-08T10:26:11;6.15;;;4.38;;
76599;SDS011;65489;52.048;6.090;2024-03-08T10:28:40;5.00;;;4.47;;
76599;SDS011;65489;52.048;6.090;2024-03-08T10:31:18;5.72;;;4.35;;
76599;SDS011;65489;52.048;6.090;2024-03-08T10:33:44;5.47;;;4.00;;
76599;SDS011;65489;52.048;6.090;2024-03-08T10:36:11;4.97;;;4.07;;
76599;SDS011;65489;52.048;6.090;2024-03-08T10:38:38;4.60;;;3.72;;
76599;SDS011;65489;52.048;6.090;2024-03-08T10:41:10;5.18;;;3.90;;
76599;SDS011;65489;52.048;6.090;2024-03-08T10:43:57;5.30;;;4.13;;
76599;SDS011;65489;52.048;6.090;2024-03-08T10:49:12;5.40;;;4.00;;
76599;SDS011;65489;52.048;6.090;2024-03-08T10:51:42;4.63;;;3.58;;
76599;SDS011;65489;52.048;6.090;2024-03-08T10:54:09;5.63;;;3.90;;
76599;SDS011;65489;52.048;6.090;2024-03-08T10:56:35;5.35;;;4.10;;
76599;SDS011;65489;52.048;6.090;2024-03-08T10:59:01;5.90;;;4.10;;
76599;SDS011;65489;52.048;6.090;2024-03-08T11:01:27;5.40;;;3.85;;
76599;SDS011;65489;52.048;6.090;2024-03-08T11:03:52;5.00;;;3.95;;
76599;SDS011;65489;52.048;6.090;2024-03-08T11:06:42;4.13;;;3.38;;
76599;SDS011;65489;52.048;6.090;2024-03-08T11:12:19;4.88;;;3.70;;
76599;SDS011;65489;52.048;6.090;2024-03-08T11:14:48;4.70;;;3.70;;
76599;SDS011;65489;52.048;6.090;2024-03-08T11:17:21;5.93;;;3.95;;
76599;SDS011;65489;52.048;6.090;2024-03-08T11:19:52;5.40;;;4.18;;
76599;SDS011;65489;52.048;6.090;2024-03-08T11:22:47;6.68;;;3.92;;
76599;SDS011;65489;52.048;6.090;2024-03-08T11:28:20;5.28;;;4.00;;
76599;SDS011;65489;52.048;6.090;2024-03-08T11:31:22;6.70;;;4.43;;
76599;SDS011;65489;52.048;6.090;2024-03-08T11:33:34;5.43;;;3.80;;
76599;SDS011;65489;52.048;6.090;2024-03-08T11:38:47;5.80;;;4.20;;
76599;SDS011;65489;52.048;6.090;2024-03-08T11:41:26;5.32;;;4.00;;
76599;SDS011;65489;52.048;6.090;2024-03-08T11:44:05;4.80;;;4.07;;
76599;SDS011;65489;52.048;6.090;2024-03-08T11:46:30;5.13;;;4.00;;
76599;SDS011;65489;52.048;6.090;2024-03-08T11:48:56;5.20;;;3.72;;
76599;SDS011;65489;52.048;6.090;2024-03-08T11:51:21;4.43;;;3.90;;
76599;SDS011;65489;52.048;6.090;2024-03-08T11:53:48;5.22;;;3.35;;
76599;SDS011;65489;52.048;6.090;2024-03-08T11:56:15;4.53;;;3.60;;
76599;SDS011;65489;52.048;6.090;2024-03-08T11:58:41;5.03;;;3.70;;
76599;SDS011;65489;52.048;6.090;2024-03-08T12:01:08;5.10;;;3.67;;
76599;SDS011;65489;52.048;6.090;2024-03-08T12:03:40;4.38;;;3.58;;
76599;SDS011;65489;52.048;6.090;2024-03-08T12:06:07;5.45;;;3.85;;
76599;SDS011;65489;52.048;6.090;2024-03-08T12:08:36;4.38;;;3.50;;
76599;SDS011;65489;52.048;6.090;2024-03-08T12:11:04;4.40;;;3.70;;
76599;SDS011;65489;52.048;6.090;2024-03-08T12:13:33;5.50;;;3.85;;
76599;SDS011;65489;52.048;6.090;2024-03-08T12:16:00;4.65;;;3.47;;
76599;SDS011;65489;52.048;6.090;2024-03-08T12:18:32;4.10;;;3.40;;
76599;SDS011;65489;52.048;6.090;2024-03-08T12:23:33;3.55;;;3.10;;
76599;SDS011;65489;52.048;6.090;2024-03-08T12:28:44;4.88;;;3.15;;
76599;SDS011;65489;52.048;6.090;2024-03-08T12:31:13;4.03;;;3.22;;
76599;SDS011;65489;52.048;6.090;2024-03-08T12:33:51;7.22;;;3.92;;
76599;SDS011;65489;52.048;6.090;2024-03-08T12:36:17;4.22;;;3.40;;
76599;SDS011;65489;52.048;6.090;2024-03-08T12:38:44;3.42;;;2.90;;
76599;SDS011;65489;52.048;6.090;2024-03-08T12:43:38;3.47;;;2.90;;
76599;SDS011;65489;52.048;6.090;2024-03-08T12:46:04;3.95;;;3.20;;
76599;SDS011;65489;52.048;6.090;2024-03-08T12:48:36;3.67;;;3.00;;
76599;SDS011;65489;52.048;6.090;2024-03-08T12:51:06;4.22;;;3.28;;
76599;SDS011;65489;52.048;6.090;2024-03-08T12:53:32;4.03;;;3.33;;
76599;SDS011;65489;52.048;6.090;2024-03-08T12:55:58;4.25;;;3.15;;
76599;SDS011;65489;52.048;6.090;2024-03-08T12:58:24;3.30;;;3.00;;
76599;SDS011;65489;52.048;6.090;2024-03-08T13:00:51;4.18;;;3.00;;
76599;SDS011;65489;52.048;6.090;2024-03-08T13:03:16;4.47;;;2.88;;
76599;SDS011;65489;52.048;6.090;2024-03-08T13:05:42;3.47;;;2.80;;
76599;SDS011;65489;52.048;6.090;2024-03-08T13:08:07;3.72;;;2.72;;
76599;SDS011;65489;52.048;6.090;2024-03-08T13:10:41;3.63;;;3.08;;
76599;SDS011;65489;52.048;6.090;2024-03-08T13:13:11;3.53;;;2.55;;
76599;SDS011;65489;52.048;6.090;2024-03-08T13:15:37;3.83;;;3.00;;
76599;SDS011;65489;52.048;6.090;2024-03-08T13:18:05;4.55;;;3.10;;
76599;SDS011;65489;52.048;6.090;2024-03-08T13:20:34;3.40;;;2.80;;
76599;SDS011;65489;52.048;6.090;2024-03-08T13:23:02;3.30;;;2.73;;
76599;SDS011;65489;52.048;6.090;2024-03-08T13:25:30;3.30;;;2.83;;
76599;SDS011;65489;52.048;6.090;2024-03-08T13:27:55;4.45;;;3.15;;
76599;SDS011;65489;52.048;6.090;2024-03-08T13:30:24;3.40;;;2.80;;
76599;SDS011;65489;52.048;6.090;2024-03-08T13:32:54;3.58;;;2.90;;
76599;SDS011;65489;52.048;6.090;2024-03-08T13:35:20;3.50;;;2.70;;
76599;SDS011;65489;52.048;6.090;2024-03-08T13:37:50;2.65;;;2.45;;
76599;SDS011;65489;52.048;6.090;2024-03-08T13:40:16;3.47;;;2.63;;
76599;SDS011;65489;52.048;6.090;2024-03-08T13:42:45;3.13;;;2.83;;
76599;SDS011;65489;52.048;6.090;2024-03-08T13:45:11;4.35;;;2.75;;
76599;SDS011;65489;52.048;6.090;2024-03-08T13:47:38;3.20;;;2.70;;
76599;SDS011;65489;52.048;6.090;2024-03-08T13:50:05;3.15;;;2.75;;
76599;SDS011;65489;52.048;6.090;2024-03-08T13:52:32;3.58;;;2.75;;
76599;SDS011;65489;52.048;6.090;2024-03-08T13:55:02;3.88;;;2.97;;
76599;SDS011;65489;52.048;6.090;2024-03-08T13:57:27;3.03;;;2.45;;
76599;SDS011;65489;52.048;6.090;2024-03-08T13:59:53;3.28;;;2.60;;
76599;SDS011;65489;52.048;6.090;2024-03-08T14:02:19;3.92;;;2.78;;
76599;SDS011;65489;52.048;6.090;2024-03-08T14:04:44;3.50;;;2.70;;
76599;SDS011;65489;52.048;6.090;2024-03-08T14:07:12;3.88;;;2.78;;
76599;SDS011;65489;52.048;6.090;2024-03-08T14:09:38;2.97;;;2.67;;
76599;SDS011;65489;52.048;6.090;2024-03-08T14:12:07;4.13;;;2.85;;
76599;SDS011;65489;52.048;6.090;2024-03-08T14:14:33;2.97;;;2.60;;
76599;SDS011;65489;52.048;6.090;2024-03-08T14:17:00;3.13;;;2.55;;
76599;SDS011;65489;52.048;6.090;2024-03-08T14:19:27;3.58;;;2.58;;
76599;SDS011;65489;52.048;6.090;2024-03-08T14:21:53;4.20;;;2.70;;
76599;SDS011;65489;52.048;6.090;2024-03-08T14:24:19;3.63;;;2.70;;
76599;SDS011;65489;52.048;6.090;2024-03-08T14:26:44;3.40;;;2.60;;
76599;SDS011;65489;52.048;6.090;2024-03-08T14:29:11;3.97;;;2.97;;
76599;SDS011;65489;52.048;6.090;2024-03-08T14:31:37;4.47;;;2.70;;
76599;SDS011;65489;52.048;6.090;2024-03-08T14:34:03;3.97;;;2.70;;
76599;SDS011;65489;52.048;6.090;2024-03-08T14:36:29;3.47;;;2.83;;
76599;SDS011;65489;52.048;6.090;2024-03-08T14:38:54;3.70;;;2.50;;
76599;SDS011;65489;52.048;6.090;2024-03-08T14:41:20;3.40;;;2.45;;
76599;SDS011;65489;52.048;6.090;2024-03-08T14:43:47;2.92;;;2.58;;
76599;SDS011;65489;52.048;6.090;2024-03-08T14:46:13;3.50;;;2.80;;
76599;SDS011;65489;52.048;6.090;2024-03-08T14:48:45;4.22;;;2.95;;
76599;SDS011;65489;52.048;6.090;2024-03-08T14:51:12;3.30;;;2.70;;
76599;SDS011;65489;52.048;6.090;2024-03-08T14:53:42;3.20;;;2.80;;
76599;SDS011;65489;52.048;6.090;2024-03-08T14:56:10;3.17;;;2.75;;
76599;SDS011;65489;52.048;6.090;2024-03-08T14:58:40;4.80;;;2.50;;
76599;SDS011;65489;52.048;6.090;2024-03-08T15:01:06;3.75;;;2.72;;
76599;SDS011;65489;52.048;6.090;2024-03-08T15:03:34;3.05;;;2.50;;
76599;SDS011;65489;52.048;6.090;2024-03-08T15:06:02;3.10;;;2.60;;